Chesapeake — WWD6590 — position and weather

sailwx.info

Track history (hours):
 
Tides and Currents Weather Stations Pressure Air Temp Water Temp Dewpoint Dewpoint Depression Visibility Wind Speed Wind Dir Waves Ship Positions

Chesapeake

Last reported at 2017-Sep-20 16:55 UTC. Time now 2017-Sep-23 16:24 UTC.
Position N 33°41' W 118°15'.

Length 14 m.

Type: Sailing vessel. MMSI: 367174970.

Date/timePositionNaut miles runAvg speedWind from/ knotsBaromVisibWave heightAir tempDewpointWater temp
2017-Sep-20 16:55N 33°41' W 118°15'  
2017-Sep-14 18:59N 33°28' W 117°42'8 6.5
2017-Sep-14 17:46N 33°20' W 117°38'2 7.1
2017-Sep-14 17:30N 33°19' W 117°37'4 7.5
2017-Sep-14 17:00N 33°17' W 117°33'4 7.6
2017-Sep-14 16:30N 33°14' W 117°30'4 7.4
2017-Sep-14 16:00N 33°12' W 117°26'2 0.1
2017-Sep-13 21:58N 33°12' W 117°24'3 5.5
2017-Sep-13 21:30N 33°10' W 117°23'4 7.0
2017-Sep-13 21:00N 33°06' W 117°23'4 6.9
2017-Sep-13 20:29N 33°03' W 117°22'3 6.8
2017-Sep-13 20:00N 32°60' W 117°21'3 6.8
2017-Sep-13 19:30N 32°56' W 117°20'3 6.6
2017-Sep-13 19:00N 32°53' W 117°19'3 6.5
2017-Sep-13 18:30N 32°50' W 117°19'  
Track history (hours):
 
Tides and Currents Weather Stations Pressure Air Temp Water Temp Dewpoint Dewpoint Depression Visibility Wind Speed Wind Dir Waves Ship Positions

Chesapeake

Last reported at 2017-Sep-20 16:55 UTC. Time now 2017-Sep-23 16:24 UTC.
Position N 33°41' W 118°15'.

Length 14 m.

Type: Sailing vessel. MMSI: 367174970.

Date/timePositionNaut miles runAvg speedWind from/ knotsBaromVisibWave heightAir tempDewpointWater temp
2017-Sep-20 16:55N 33°41' W 118°15'  
2017-Sep-14 18:59N 33°28' W 117°42'8 6.5
2017-Sep-14 17:46N 33°20' W 117°38'2 7.1
2017-Sep-14 17:30N 33°19' W 117°37'4 7.5
2017-Sep-14 17:00N 33°17' W 117°33'4 7.6
2017-Sep-14 16:30N 33°14' W 117°30'4 7.4
2017-Sep-14 16:00N 33°12' W 117°26'2 0.1
2017-Sep-13 21:58N 33°12' W 117°24'3 5.5
2017-Sep-13 21:30N 33°10' W 117°23'4 7.0
2017-Sep-13 21:00N 33°06' W 117°23'4 6.9
2017-Sep-13 20:29N 33°03' W 117°22'3 6.8
2017-Sep-13 20:00N 32°60' W 117°21'3 6.8
2017-Sep-13 19:30N 32°56' W 117°20'3 6.6
2017-Sep-13 19:00N 32°53' W 117°19'3 6.5
2017-Sep-13 18:30N 32°50' W 117°19'  

Dump ship's entire track history